createdAt,value
2018-04-26T00:00:33.743Z,10.34
2018-04-26T00:02:26.726Z,10.34
2018-04-26T00:03:26.785Z,10.37
2018-04-26T00:05:19.779Z,10.53
2018-04-26T00:06:19.832Z,10.49
2018-04-26T00:08:12.812Z,10.51
2018-04-26T00:09:12.871Z,10.60
2018-04-26T00:11:05.878Z,10.64
2018-04-26T00:12:05.917Z,10.63
2018-04-26T00:13:58.900Z,10.76
2018-04-26T00:14:58.958Z,10.78
2018-04-26T00:16:51.952Z,10.78
2018-04-26T00:17:52.000Z,10.72
2018-04-26T00:19:44.993Z,10.76
2018-04-26T00:20:45.041Z,10.86
2018-04-26T00:22:38.024Z,10.92
2018-04-26T00:23:38.084Z,10.86
2018-04-26T00:25:31.078Z,10.89
2018-04-26T00:26:31.375Z,10.81
2018-04-26T00:28:24.116Z,10.86
2018-04-26T00:29:24.174Z,10.93
2018-04-26T00:31:17.167Z,10.96
2018-04-26T00:32:17.213Z,10.89
2018-04-26T00:34:10.197Z,10.93
2018-04-26T00:35:10.260Z,10.89
2018-04-26T00:37:03.248Z,10.97
2018-04-26T00:38:03.305Z,11.02
2018-04-26T00:39:56.293Z,11.02
2018-04-26T00:40:56.365Z,10.96
2018-04-26T00:42:49.330Z,11.07
2018-04-26T00:43:49.389Z,11.00
2018-04-26T00:45:42.382Z,10.99
2018-04-26T00:46:42.432Z,10.99
2018-04-26T00:48:35.418Z,11.04
2018-04-26T00:49:35.480Z,11.08
2018-04-26T00:51:28.530Z,11.05
2018-04-26T00:52:28.514Z,11.10
2018-04-26T00:54:21.499Z,11.07
2018-04-26T00:55:21.557Z,10.94
2018-04-26T00:57:14.551Z,11.04
2018-04-26T00:58:14.599Z,11.07
2018-04-26T01:00:07.604Z,11.02
2018-04-26T01:01:07.653Z,11.02
2018-04-26T01:03:00.635Z,11.04
2018-04-26T01:04:00.693Z,11.02
2018-04-26T01:05:53.685Z,11.00
2018-04-26T01:06:53.735Z,10.99
2018-04-26T01:08:46.723Z,11.11
2018-04-26T01:09:46.784Z,11.02
2018-04-26T01:11:39.778Z,11.00
2018-04-26T01:12:39.830Z,10.97
2018-04-26T01:14:32.812Z,10.99
2018-04-26T01:15:32.870Z,11.07
2018-04-26T01:17:25.864Z,11.08
2018-04-26T01:18:25.912Z,11.10
2018-04-26T01:20:18.907Z,11.10
2018-04-26T01:21:18.954Z,11.05
2018-04-26T01:23:11.938Z,11.07
2018-04-26T01:24:11.995Z,10.99
2018-04-26T01:26:04.990Z,11.14
2018-04-26T01:27:05.038Z,11.04
2018-04-26T01:28:58.024Z,11.10
2018-04-26T01:29:58.083Z,11.08
2018-04-26T01:31:51.075Z,11.08
2018-04-26T01:32:51.124Z,11.10
2018-04-26T01:34:50.641Z,11.02
2018-04-26T01:35:44.170Z,11.00
2018-04-26T01:37:37.172Z,11.08
2018-04-26T01:38:37.216Z,11.02
2018-04-26T01:40:30.216Z,10.99
2018-04-26T01:41:30.268Z,10.90
2018-04-26T01:43:23.261Z,10.84
2018-04-26T01:44:23.312Z,10.76
2018-04-26T01:46:16.297Z,10.75
2018-04-26T01:47:16.358Z,10.61
2018-04-26T01:49:09.345Z,10.49
2018-04-26T01:50:09.398Z,10.51
2018-04-26T01:52:02.383Z,10.33
2018-04-26T01:53:02.445Z,10.31
2018-04-26T01:54:55.437Z,10.22
2018-04-26T01:55:55.486Z,10.16
2018-04-26T01:57:48.479Z,10.17
2018-04-26T01:58:48.527Z,10.25
2018-04-26T02:00:41.516Z,10.23
2018-04-26T02:01:41.574Z,10.26
2018-04-26T02:03:34.550Z,10.22
2018-04-26T02:04:34.613Z,10.22
2018-04-26T02:06:27.606Z,10.30
2018-04-26T02:07:27.653Z,10.22
2018-04-26T02:09:20.647Z,10.25
2018-04-26T02:10:20.697Z,10.10
2018-04-26T02:12:13.677Z,10.22
2018-04-26T02:13:13.737Z,10.17
2018-04-26T02:15:06.729Z,10.16
2018-04-26T02:16:06.779Z,10.17
2018-04-26T02:17:59.762Z,10.10
2018-04-26T02:18:59.820Z,10.15
2018-04-26T02:20:52.814Z,10.16
2018-04-26T02:21:52.863Z,10.15
2018-04-26T02:23:45.845Z,10.16
2018-04-26T02:24:45.903Z,10.17
2018-04-26T02:26:38.897Z,10.13
2018-04-26T02:27:38.947Z,10.19
2018-04-26T02:29:31.935Z,10.09
2018-04-26T02:30:31.991Z,10.12
2018-04-26T02:32:24.977Z,10.10
2018-04-26T02:33:25.035Z,10.16
2018-04-26T02:35:18.023Z,10.12
2018-04-26T02:36:18.077Z,10.16
2018-04-26T02:38:11.056Z,10.19
2018-04-26T02:39:11.117Z,10.17
2018-04-26T02:41:04.150Z,10.33
2018-04-26T02:42:04.161Z,10.26
2018-04-26T02:43:57.142Z,10.25
2018-04-26T02:44:57.200Z,10.25
2018-04-26T02:46:50.188Z,10.22
2018-04-26T02:47:50.242Z,10.26
2018-04-26T02:49:43.235Z,10.16
2018-04-26T02:50:43.296Z,10.13
2018-04-26T02:52:36.287Z,10.16
2018-04-26T02:53:36.336Z,10.19
2018-04-26T02:55:29.324Z,10.16
2018-04-26T02:56:29.378Z,10.12
2018-04-26T02:58:22.363Z,10.12
2018-04-26T02:59:22.418Z,10.09
2018-04-26T03:01:15.410Z,10.12
2018-04-26T03:02:15.461Z,10.10
2018-04-26T03:04:08.442Z,10.09
2018-04-26T03:05:08.504Z,10.15
2018-04-26T03:07:01.488Z,10.13
2018-04-26T03:08:01.543Z,10.10
2018-04-26T03:09:54.525Z,10.10
2018-04-26T03:10:54.582Z,10.16
2018-04-26T03:12:47.585Z,10.10
2018-04-26T03:13:47.625Z,10.12
2018-04-26T03:15:40.607Z,10.10
2018-04-26T03:16:40.664Z,10.12
2018-04-26T03:18:33.653Z,10.12
2018-04-26T03:19:33.712Z,10.01
2018-04-26T03:21:27.204Z,9.99
2018-04-26T03:22:27.255Z,10.01
2018-04-26T03:24:20.237Z,10.15
2018-04-26T03:25:20.296Z,10.09
2018-04-26T03:27:13.291Z,10.13
2018-04-26T03:28:13.335Z,10.01
2018-04-26T03:30:06.320Z,10.04
2018-04-26T03:31:06.401Z,10.05
2018-04-26T03:32:59.371Z,9.98
2018-04-26T03:33:59.421Z,10.02
2018-04-26T03:35:52.403Z,9.99
2018-04-26T03:36:52.462Z,10.07
2018-04-26T03:38:45.449Z,10.07
2018-04-26T03:39:45.504Z,9.97
2018-04-26T03:41:38.501Z,9.99
2018-04-26T03:42:38.549Z,9.94
2018-04-26T03:44:31.529Z,9.89
2018-04-26T03:45:31.588Z,9.82
2018-04-26T03:47:24.596Z,9.76
2018-04-26T03:48:24.628Z,9.72
2018-04-26T03:50:17.612Z,9.72
2018-04-26T03:51:17.757Z,9.72
2018-04-26T03:53:10.660Z,9.62
2018-04-26T03:54:10.713Z,9.72
2018-04-26T03:56:03.694Z,9.74
2018-04-26T03:57:03.751Z,9.77
2018-04-26T03:58:56.741Z,9.69
2018-04-26T03:59:56.792Z,9.73
2018-04-26T04:01:49.784Z,9.73
2018-04-26T04:02:49.831Z,9.77
2018-04-26T04:04:42.825Z,9.73
2018-04-26T04:05:42.873Z,9.76
2018-04-26T04:07:35.864Z,9.73
2018-04-26T04:08:35.917Z,9.80
2018-04-26T04:10:28.901Z,9.76
2018-04-26T04:11:28.957Z,9.82
2018-04-26T04:13:21.945Z,9.80
2018-04-26T04:14:21.994Z,9.84
2018-04-26T04:16:14.976Z,9.86
2018-04-26T04:17:15.035Z,9.86
2018-04-26T04:19:08.027Z,9.76
2018-04-26T04:20:08.078Z,9.73
2018-04-26T04:22:01.066Z,9.76
2018-04-26T04:23:01.121Z,9.77
2018-04-26T04:24:54.118Z,9.76
2018-04-26T04:25:54.172Z,9.72
2018-04-26T04:27:47.151Z,9.72
2018-04-26T04:28:47.210Z,9.77
2018-04-26T04:30:40.195Z,9.73
2018-04-26T04:31:40.248Z,9.69
2018-04-26T04:33:33.244Z,9.73
2018-04-26T04:34:33.296Z,9.68
2018-04-26T04:36:26.269Z,9.69
2018-04-26T04:37:26.329Z,9.62
2018-04-26T04:39:19.321Z,9.64
2018-04-26T04:40:19.374Z,9.58
2018-04-26T04:42:12.356Z,9.56
2018-04-26T04:43:12.413Z,9.59
2018-04-26T04:45:05.475Z,9.50
2018-04-26T04:46:05.454Z,9.59
2018-04-26T04:47:58.433Z,9.59
2018-04-26T04:48:58.495Z,9.64
2018-04-26T04:50:51.484Z,9.64
2018-04-26T04:51:51.534Z,9.61
2018-04-26T04:53:44.516Z,9.64
2018-04-26T04:54:44.579Z,9.61
2018-04-26T04:56:37.578Z,9.65
2018-04-26T04:57:37.616Z,9.66
2018-04-26T04:59:30.625Z,9.62
2018-04-26T05:00:30.657Z,9.64
2018-04-26T05:02:23.642Z,9.56
2018-04-26T05:03:23.698Z,9.62
2018-04-26T05:05:16.694Z,9.64
2018-04-26T05:06:16.738Z,9.61
2018-04-26T05:08:09.718Z,9.61
2018-04-26T05:09:09.778Z,9.54
2018-04-26T05:11:02.769Z,9.51
2018-04-26T05:12:02.817Z,9.61
2018-04-26T05:13:55.806Z,9.54
2018-04-26T05:14:55.864Z,9.50
2018-04-26T05:16:48.862Z,9.54
2018-04-26T05:17:48.916Z,9.50
2018-04-26T05:19:42.000Z,9.64
2018-04-26T05:20:41.953Z,9.58
2018-04-26T05:22:34.968Z,9.61
2018-04-26T05:23:34.994Z,9.68
2018-04-26T05:25:27.989Z,9.72
2018-04-26T05:26:28.040Z,9.89
2018-04-26T05:28:21.018Z,9.98
2018-04-26T05:29:21.078Z,9.86
2018-04-26T05:31:14.070Z,9.84
2018-04-26T05:32:14.118Z,9.91
2018-04-26T05:34:07.106Z,9.91
2018-04-26T05:35:07.164Z,9.89
2018-04-26T05:37:00.162Z,9.84
2018-04-26T05:38:00.214Z,9.87
2018-04-26T05:39:53.206Z,9.86
2018-04-26T05:40:53.267Z,9.87
2018-04-26T05:42:46.258Z,9.87
2018-04-26T05:43:46.310Z,9.82
2018-04-26T05:45:39.293Z,9.91
2018-04-26T05:46:39.356Z,9.80
2018-04-26T05:48:32.345Z,9.86
2018-04-26T05:49:32.394Z,9.86
2018-04-26T05:51:25.382Z,9.89
2018-04-26T05:52:25.435Z,9.77
2018-04-26T05:54:18.418Z,9.87
2018-04-26T05:55:18.480Z,9.92
2018-04-26T05:57:11.467Z,9.98
2018-04-26T05:58:11.519Z,10.15
2018-04-26T06:00:04.507Z,10.33
2018-04-26T06:01:04.566Z,10.35
2018-04-26T06:02:57.560Z,10.22
2018-04-26T06:03:57.611Z,10.15
2018-04-26T06:05:50.596Z,9.99
2018-04-26T06:06:50.653Z,9.95
2018-04-26T06:08:43.646Z,10.17
2018-04-26T06:09:43.699Z,10.13
2018-04-26T06:11:36.698Z,10.26
2018-04-26T06:12:36.741Z,10.10
2018-04-26T06:14:29.725Z,10.16
2018-04-26T06:15:29.780Z,10.22
2018-04-26T06:17:22.776Z,10.56
2018-04-26T06:18:22.824Z,10.64
2018-04-26T06:20:15.805Z,10.90
2018-04-26T06:21:15.865Z,11.15
2018-04-26T06:23:08.854Z,12.76
2018-04-26T06:24:08.904Z,13.72
2018-04-26T06:26:01.887Z,13.95
2018-04-26T06:27:01.947Z,13.25
2018-04-26T06:28:54.941Z,13.85
2018-04-26T06:29:54.992Z,13.13
2018-04-26T06:31:47.986Z,15.17
2018-04-26T06:32:48.038Z,16.16
2018-04-26T06:34:41.033Z,17.59
2018-04-26T06:35:41.096Z,16.54
2018-04-26T06:37:34.083Z,16.54
2018-04-26T06:38:34.138Z,16.43
2018-04-26T06:40:27.126Z,16.68
2018-04-26T06:41:27.187Z,16.64
2018-04-26T06:43:20.190Z,14.82
2018-04-26T06:44:20.250Z,14.45
2018-04-26T06:46:13.245Z,13.53
2018-04-26T06:47:13.309Z,13.01
2018-04-26T06:49:06.304Z,12.55
2018-04-26T06:50:06.359Z,12.70
2018-04-26T06:51:59.359Z,12.53
2018-04-26T06:52:59.412Z,12.43
2018-04-26T06:54:52.416Z,12.42
2018-04-26T06:55:52.472Z,12.39
2018-04-26T06:57:45.460Z,12.57
2018-04-26T06:58:45.522Z,12.46
2018-04-26T07:00:38.514Z,12.43
2018-04-26T07:01:38.568Z,12.82
2018-04-26T07:03:31.564Z,12.49
2018-04-26T07:04:31.615Z,12.53
2018-04-26T07:06:25.122Z,12.46
2018-04-26T07:07:25.184Z,12.46
2018-04-26T07:09:18.176Z,13.49
2018-04-26T07:10:18.234Z,13.19
2018-04-26T07:12:11.270Z,13.86
2018-04-26T07:13:11.282Z,13.60
2018-04-26T07:15:04.280Z,14.81
2018-04-26T07:16:04.336Z,14.11
2018-04-26T07:17:57.316Z,13.41
2018-04-26T07:18:57.378Z,13.30
2018-04-26T07:20:50.379Z,13.12
2018-04-26T07:21:50.427Z,12.98
2018-04-26T07:23:43.452Z,12.94
2018-04-26T07:24:43.480Z,12.72
2018-04-26T07:26:36.476Z,12.61
2018-04-26T07:27:36.531Z,12.49
2018-04-26T07:29:29.529Z,12.67
2018-04-26T07:30:29.584Z,12.75
2018-04-26T07:32:22.569Z,13.87
2018-04-26T07:33:22.629Z,14.03
2018-04-26T07:35:15.632Z,14.32
2018-04-26T07:36:15.682Z,13.92
2018-04-26T07:38:08.684Z,13.63
2018-04-26T07:39:08.736Z,13.23
2018-04-26T07:41:01.739Z,13.46
2018-04-26T07:42:01.791Z,13.90
2018-04-26T07:43:54.776Z,14.04
2018-04-26T07:44:54.839Z,14.03
2018-04-26T07:46:47.841Z,14.10
2018-04-26T07:47:47.892Z,14.03
2018-04-26T07:49:40.888Z,15.92
2018-04-26T07:50:40.944Z,14.84
2018-04-26T07:52:33.939Z,15.24
2018-04-26T07:53:34.000Z,14.78
2018-04-26T07:55:26.993Z,15.57
2018-04-26T07:56:27.049Z,15.52
2018-04-26T07:58:20.051Z,17.29
2018-04-26T07:59:20.102Z,18.62
2018-04-26T08:01:13.102Z,17.82
2018-04-26T08:02:13.163Z,16.84
2018-04-26T08:04:06.151Z,16.91
2018-04-26T08:05:06.217Z,16.15
2018-04-26T08:06:59.728Z,15.97
2018-04-26T08:07:59.779Z,15.27
2018-04-26T08:09:52.771Z,15.04
2018-04-26T08:10:52.833Z,14.89
2018-04-26T08:12:45.832Z,18.86
2018-04-26T08:13:45.892Z,20.65
2018-04-26T08:15:38.895Z,21.82
2018-04-26T08:16:38.947Z,21.76
2018-04-26T08:18:31.951Z,22.55
2018-04-26T08:19:32.097Z,21.61
2018-04-26T08:21:25.030Z,19.44
2018-04-26T08:22:25.085Z,19.09
2018-04-26T08:24:18.085Z,18.13
2018-04-26T08:25:18.156Z,16.84
2018-04-26T08:27:11.153Z,15.68
2018-04-26T08:28:11.217Z,15.36
2018-04-26T08:30:04.227Z,14.73
2018-04-26T08:31:04.296Z,15.27
2018-04-26T08:32:57.291Z,16.99
2018-04-26T08:33:57.351Z,17.72
2018-04-26T08:35:50.353Z,19.18
2018-04-26T08:36:50.469Z,19.99
2018-04-26T08:38:43.411Z,18.40
2018-04-26T08:39:43.473Z,17.92
2018-04-26T08:41:36.476Z,18.80
2018-04-26T08:42:36.538Z,17.86
2018-04-26T08:44:29.533Z,16.56
2018-04-26T08:45:29.602Z,15.84
2018-04-26T08:47:22.601Z,14.96
2018-04-26T08:48:22.661Z,14.63
2018-04-26T08:50:15.656Z,14.10
2018-04-26T08:51:15.724Z,14.03
2018-04-26T08:53:08.724Z,13.77
2018-04-26T08:54:08.779Z,13.47
2018-04-26T08:56:01.784Z,13.38
2018-04-26T08:57:01.853Z,13.31
2018-04-26T08:58:54.845Z,13.27
2018-04-26T08:59:54.898Z,13.46
2018-04-26T09:01:47.897Z,13.41
2018-04-26T09:02:47.951Z,13.42
2018-04-26T09:04:40.940Z,13.19
2018-04-26T09:05:41.026Z,13.08
2018-04-26T09:07:33.999Z,12.91
2018-04-26T09:08:34.054Z,12.76
2018-04-26T09:10:27.043Z,12.40
2018-04-26T09:11:27.102Z,12.40
2018-04-26T09:13:20.091Z,12.27
2018-04-26T09:14:20.156Z,12.42
2018-04-26T09:16:13.141Z,12.97
2018-04-26T09:17:13.203Z,13.42
2018-04-26T09:19:06.200Z,14.08
2018-04-26T09:20:06.262Z,14.18
2018-04-26T09:21:59.273Z,14.37
2018-04-26T09:22:59.310Z,14.45
2018-04-26T09:24:52.309Z,14.40
2018-04-26T09:25:52.362Z,14.47
2018-04-26T09:27:45.447Z,14.51
2018-04-26T09:28:45.415Z,14.63
2018-04-26T09:30:38.403Z,14.53
2018-04-26T09:31:38.465Z,14.58
2018-04-26T09:33:31.479Z,14.66
2018-04-26T09:34:31.523Z,14.54
2018-04-26T09:36:24.532Z,14.45
2018-04-26T09:37:24.582Z,14.37
2018-04-26T09:39:17.583Z,14.48
2018-04-26T09:40:17.639Z,14.53
2018-04-26T09:42:10.629Z,14.68
2018-04-26T09:43:10.737Z,14.91
2018-04-26T09:45:03.687Z,15.04
2018-04-26T09:46:03.735Z,15.09
2018-04-26T09:47:56.751Z,15.17
2018-04-26T09:48:56.806Z,15.04
2018-04-26T09:50:49.792Z,15.24
2018-04-26T09:51:49.860Z,15.25
2018-04-26T09:53:42.862Z,15.90
2018-04-26T09:54:42.898Z,16.21
2018-04-26T09:56:35.921Z,16.05
2018-04-26T09:57:35.995Z,15.76
2018-04-26T09:59:28.954Z,15.36
2018-04-26T10:00:29.026Z,15.22
2018-04-26T10:02:22.013Z,15.03
2018-04-26T10:03:22.080Z,14.86
2018-04-26T10:05:15.105Z,14.69
2018-04-26T10:06:15.125Z,14.82
2018-04-26T10:08:08.123Z,15.04
2018-04-26T10:09:08.186Z,15.14
2018-04-26T10:11:01.204Z,15.46
2018-04-26T10:12:01.246Z,15.62
2018-04-26T10:13:54.251Z,15.68
2018-04-26T10:14:54.303Z,15.73
2018-04-26T10:16:47.296Z,15.57
2018-04-26T10:17:47.356Z,15.58
2018-04-26T10:19:40.355Z,15.19
2018-04-26T10:20:40.408Z,15.09
2018-04-26T10:22:33.412Z,14.79
2018-04-26T10:23:33.469Z,14.85
2018-04-26T10:25:26.473Z,15.02
2018-04-26T10:26:26.530Z,15.36
2018-04-26T10:28:19.578Z,16.09
2018-04-26T10:29:19.592Z,16.04
2018-04-26T10:31:12.591Z,15.80
2018-04-26T10:32:12.645Z,15.92
2018-04-26T10:34:05.643Z,15.94
2018-04-26T10:35:05.704Z,16.13
2018-04-26T10:36:58.708Z,16.32
2018-04-26T10:37:58.763Z,16.29
2018-04-26T10:39:51.764Z,15.95
2018-04-26T10:40:51.820Z,15.90
2018-04-26T10:42:44.807Z,15.52
2018-04-26T10:43:44.881Z,15.54
2018-04-26T10:45:37.871Z,15.39
2018-04-26T10:46:37.949Z,15.39
2018-04-26T10:48:30.913Z,15.29
2018-04-26T10:49:30.984Z,15.52
2018-04-26T10:51:23.977Z,15.52
2018-04-26T10:52:24.029Z,15.58
2018-04-26T10:54:17.017Z,15.61
2018-04-26T10:55:17.081Z,15.65
2018-04-26T10:57:10.077Z,16.00
2018-04-26T10:58:10.132Z,16.13
2018-04-26T11:00:03.207Z,16.28
2018-04-26T11:01:03.188Z,16.00
2018-04-26T11:02:56.180Z,15.68
2018-04-26T11:03:56.242Z,15.68
2018-04-26T11:05:49.239Z,15.67
2018-04-26T11:06:49.294Z,15.51
2018-04-26T11:08:42.282Z,15.39
2018-04-26T11:09:42.349Z,15.07
2018-04-26T11:11:35.371Z,15.07
2018-04-26T11:12:35.397Z,15.09
2018-04-26T11:14:28.388Z,15.18
2018-04-26T11:15:28.521Z,15.17
2018-04-26T11:17:21.539Z,15.07
2018-04-26T11:18:21.503Z,15.04
2018-04-26T11:20:14.500Z,15.11
2018-04-26T11:21:14.626Z,15.39
2018-04-26T11:23:07.561Z,15.35
2018-04-26T11:24:07.614Z,15.10
2018-04-26T11:26:00.614Z,14.82
2018-04-26T11:27:00.667Z,14.62
2018-04-26T11:28:53.652Z,14.96
2018-04-26T11:29:53.716Z,15.11
2018-04-26T11:31:46.715Z,15.42
2018-04-26T11:32:46.772Z,15.40
2018-04-26T11:34:39.778Z,15.46
2018-04-26T11:35:39.839Z,15.47
2018-04-26T11:37:32.844Z,15.46
2018-04-26T11:38:32.894Z,15.36
2018-04-26T11:40:25.881Z,15.11
2018-04-26T11:41:25.945Z,15.07
2018-04-26T11:43:18.943Z,14.53
2018-04-26T11:44:18.990Z,14.48
2018-04-26T11:46:11.985Z,14.30
2018-04-26T11:47:12.046Z,14.22
2018-04-26T11:49:05.054Z,14.05
2018-04-26T11:50:05.108Z,14.10
2018-04-26T11:51:58.111Z,14.20
2018-04-26T11:52:58.158Z,14.41
2018-04-26T11:54:51.147Z,14.85
2018-04-26T11:55:51.207Z,14.94
2018-04-26T11:57:44.206Z,15.11
2018-04-26T11:58:44.260Z,15.07
2018-04-26T12:00:37.251Z,15.44
2018-04-26T12:01:37.317Z,15.77
2018-04-26T12:03:30.309Z,16.41
2018-04-26T12:04:30.363Z,16.65
2018-04-26T12:06:23.865Z,16.60
2018-04-26T12:07:23.925Z,16.60
2018-04-26T12:09:16.920Z,16.36
2018-04-26T12:10:16.978Z,16.36
2018-04-26T12:12:09.969Z,16.20
2018-04-26T12:13:10.046Z,16.24
2018-04-26T12:15:03.013Z,16.21
2018-04-26T12:16:03.080Z,16.04
2018-04-26T12:17:56.078Z,15.62
2018-04-26T12:18:56.137Z,15.68
2018-04-26T12:20:49.125Z,15.76
2018-04-26T12:21:49.189Z,15.67
2018-04-26T12:23:42.190Z,15.51
2018-04-26T12:24:42.239Z,15.43
2018-04-26T12:26:35.229Z,15.17
2018-04-26T12:27:35.293Z,15.03
2018-04-26T12:29:28.291Z,14.86
2018-04-26T12:30:28.346Z,14.72
2018-04-26T12:32:21.337Z,15.04
2018-04-26T12:33:21.497Z,15.37
2018-04-26T12:35:14.490Z,15.70
2018-04-26T12:36:14.465Z,15.73
2018-04-26T12:38:07.475Z,15.98
2018-04-26T12:39:07.520Z,15.82
2018-04-26T12:41:00.507Z,15.70
2018-04-26T12:42:00.576Z,15.64
2018-04-26T12:43:53.569Z,15.91
2018-04-26T12:44:53.645Z,15.75
2018-04-26T12:46:46.616Z,16.00
2018-04-26T12:47:46.696Z,16.24
2018-04-26T12:49:39.675Z,16.32
2018-04-26T12:50:39.729Z,16.21
2018-04-26T12:52:32.727Z,15.95
2018-04-26T12:53:32.787Z,15.86
2018-04-26T12:55:25.783Z,15.61
2018-04-26T12:56:25.842Z,15.72
2018-04-26T12:58:18.832Z,15.52
2018-04-26T12:59:18.897Z,15.55
2018-04-26T13:01:11.898Z,15.72
2018-04-26T13:02:11.948Z,15.77
2018-04-26T13:04:04.949Z,16.15
2018-04-26T13:05:05.055Z,16.21
2018-04-26T13:06:57.998Z,16.21
2018-04-26T13:07:58.065Z,16.21
2018-04-26T13:09:51.059Z,16.35
2018-04-26T13:10:51.109Z,16.17
2018-04-26T13:12:44.112Z,16.15
2018-04-26T13:13:44.169Z,16.15
2018-04-26T13:15:37.179Z,15.90
2018-04-26T13:16:37.224Z,15.97
2018-04-26T13:18:30.220Z,16.13
2018-04-26T13:19:30.280Z,16.04
2018-04-26T13:21:23.333Z,15.94
2018-04-26T13:22:23.335Z,15.98
2018-04-26T13:24:16.336Z,15.92
2018-04-26T13:25:16.387Z,15.92
2018-04-26T13:27:09.400Z,15.94
2018-04-26T13:28:09.438Z,16.02
2018-04-26T13:30:02.442Z,16.10
2018-04-26T13:31:02.493Z,16.15
2018-04-26T13:32:55.483Z,16.20
2018-04-26T13:33:55.543Z,16.28
2018-04-26T13:35:48.540Z,16.36
2018-04-26T13:36:48.592Z,16.38
2018-04-26T13:38:41.593Z,15.98
2018-04-26T13:39:41.647Z,15.92
2018-04-26T13:41:34.643Z,15.54
2018-04-26T13:42:34.698Z,15.35
2018-04-26T13:44:27.691Z,14.77
2018-04-26T13:45:27.748Z,14.12
2018-04-26T13:47:20.741Z,13.23
2018-04-26T13:48:20.797Z,13.11
2018-04-26T13:50:13.794Z,12.72
2018-04-26T13:51:13.845Z,12.75
2018-04-26T13:53:06.838Z,12.82
2018-04-26T13:54:06.899Z,13.03
2018-04-26T13:55:59.893Z,13.68
2018-04-26T13:56:59.948Z,13.90
2018-04-26T13:58:52.937Z,14.08
2018-04-26T13:59:53.001Z,14.18
2018-04-26T14:01:45.996Z,14.11
2018-04-26T14:02:46.052Z,14.12
2018-04-26T14:04:39.058Z,14.14
2018-04-26T14:05:39.116Z,14.10
2018-04-26T14:07:32.100Z,14.10
2018-04-26T14:08:32.154Z,14.29
2018-04-26T14:10:25.164Z,14.37
2018-04-26T14:11:25.200Z,14.45
2018-04-26T14:13:18.194Z,14.68
2018-04-26T14:14:18.252Z,14.73
2018-04-26T14:16:11.239Z,14.78
2018-04-26T14:17:11.300Z,14.72
2018-04-26T14:19:04.285Z,14.72
2018-04-26T14:20:04.345Z,14.84
2018-04-26T14:21:57.344Z,14.91
2018-04-26T14:22:57.478Z,14.92
2018-04-26T14:24:50.383Z,14.94
2018-04-26T14:25:50.444Z,14.99
2018-04-26T14:27:43.441Z,14.91
2018-04-26T14:28:43.504Z,14.94
2018-04-26T14:30:36.491Z,14.84
2018-04-26T14:31:36.555Z,14.78
2018-04-26T14:33:29.552Z,14.77
2018-04-26T14:34:29.605Z,14.72
2018-04-26T14:36:22.594Z,14.51
2018-04-26T14:37:22.736Z,14.47
2018-04-26T14:39:15.668Z,14.78
2018-04-26T14:40:15.733Z,14.92
2018-04-26T14:42:08.708Z,15.27
2018-04-26T14:43:08.770Z,15.14
2018-04-26T14:45:01.760Z,15.22
2018-04-26T14:46:01.821Z,15.28
2018-04-26T14:47:54.813Z,15.21
2018-04-26T14:48:54.868Z,15.14
2018-04-26T14:50:47.853Z,15.22
2018-04-26T14:51:47.913Z,15.29
2018-04-26T14:53:41.418Z,15.18
2018-04-26T14:54:41.469Z,15.04
2018-04-26T14:56:34.460Z,15.04
2018-04-26T14:57:34.527Z,15.14
2018-04-26T14:59:27.517Z,15.24
2018-04-26T15:00:27.569Z,15.31
2018-04-26T15:02:20.580Z,15.47
2018-04-26T15:03:20.622Z,15.47
2018-04-26T15:05:13.613Z,15.44
2018-04-26T15:06:13.673Z,15.44
2018-04-26T15:08:06.669Z,15.55
2018-04-26T15:09:06.730Z,15.52
2018-04-26T15:10:59.711Z,15.43
2018-04-26T15:11:59.774Z,15.44
2018-04-26T15:13:53.640Z,15.35
2018-04-26T15:14:53.776Z,15.39
2018-04-26T15:16:46.686Z,15.25
2018-04-26T15:17:46.747Z,15.25
2018-04-26T15:19:39.743Z,15.29
2018-04-26T15:20:39.802Z,15.35
2018-04-26T15:22:32.787Z,15.35
2018-04-26T15:23:32.845Z,15.33
2018-04-26T15:25:25.843Z,15.36
2018-04-26T15:26:25.895Z,15.39
2018-04-26T15:28:18.890Z,15.42
2018-04-26T15:29:18.944Z,15.42
2018-04-26T15:31:11.929Z,15.42
2018-04-26T15:32:11.992Z,15.44
2018-04-26T15:34:04.989Z,15.46
2018-04-26T15:35:05.040Z,15.44
2018-04-26T15:36:58.043Z,15.49
2018-04-26T15:37:58.093Z,15.49
2018-04-26T15:39:51.100Z,15.57
2018-04-26T15:40:51.149Z,15.46
2018-04-26T15:42:44.142Z,15.44
2018-04-26T15:43:44.202Z,15.52
2018-04-26T15:45:37.204Z,15.43
2018-04-26T15:46:37.260Z,15.42
2018-04-26T15:48:30.263Z,15.43
2018-04-26T15:49:30.324Z,15.43
2018-04-26T15:51:23.351Z,15.43
2018-04-26T15:52:23.372Z,15.43
2018-04-26T15:54:16.874Z,15.59
2018-04-26T15:55:16.933Z,15.65
2018-04-26T15:57:09.917Z,15.59
2018-04-26T15:58:10.001Z,15.65
2018-04-26T16:00:02.976Z,15.62
2018-04-26T16:01:03.083Z,15.61
2018-04-26T16:02:56.032Z,15.44
2018-04-26T16:03:56.079Z,15.43
2018-04-26T16:05:49.079Z,15.22
2018-04-26T16:06:49.134Z,15.28
2018-04-26T16:08:42.136Z,15.15
2018-04-26T16:09:42.188Z,15.18
2018-04-26T16:11:35.189Z,15.10
2018-04-26T16:12:35.239Z,15.22
2018-04-26T16:14:28.224Z,15.36
2018-04-26T16:15:28.289Z,15.43
2018-04-26T16:17:21.296Z,15.36
2018-04-26T16:18:21.352Z,15.33
2018-04-26T16:20:14.845Z,15.37
2018-04-26T16:21:14.913Z,15.42
2018-04-26T16:23:07.917Z,15.44
2018-04-26T16:24:07.960Z,15.44
2018-04-26T16:26:00.956Z,15.59
2018-04-26T16:27:01.014Z,15.61
2018-04-26T16:28:53.996Z,15.57
2018-04-26T16:29:54.070Z,15.52
2018-04-26T16:31:47.053Z,15.47
2018-04-26T16:32:47.107Z,15.39
2018-04-26T16:34:40.097Z,15.37
2018-04-26T16:35:40.158Z,15.33
2018-04-26T16:37:33.157Z,15.36
2018-04-26T16:38:33.214Z,15.35
2018-04-26T16:40:26.709Z,15.36
2018-04-26T16:41:26.771Z,15.37
2018-04-26T16:43:19.768Z,15.36
2018-04-26T16:44:19.894Z,15.39
2018-04-26T16:46:12.801Z,15.36
2018-04-26T16:47:12.870Z,15.24
2018-04-26T16:49:05.915Z,15.07
2018-04-26T16:50:05.925Z,15.14
2018-04-26T16:51:58.922Z,15.14
2018-04-26T16:52:58.975Z,15.14
2018-04-26T16:54:51.972Z,15.15
2018-04-26T16:55:52.030Z,15.15
2018-04-26T16:57:45.079Z,15.02
2018-04-26T16:58:45.086Z,15.07
2018-04-26T17:00:38.124Z,15.06
2018-04-26T17:01:38.152Z,15.03
2018-04-26T17:03:31.144Z,14.97
2018-04-26T17:04:31.303Z,14.92
2018-04-26T17:06:24.193Z,14.85
2018-04-26T17:07:24.253Z,14.92
2018-04-26T17:09:17.251Z,14.88
2018-04-26T17:10:17.310Z,14.84
2018-04-26T17:12:10.296Z,14.77
2018-04-26T17:13:10.361Z,14.77
2018-04-26T17:15:03.358Z,14.54
2018-04-26T17:16:03.407Z,14.59
2018-04-26T17:17:56.405Z,14.58
2018-04-26T17:18:56.458Z,14.62
2018-04-26T17:20:49.445Z,14.60
2018-04-26T17:21:49.503Z,14.53
2018-04-26T17:23:42.510Z,14.55
2018-04-26T17:24:42.562Z,14.47
2018-04-26T17:26:35.543Z,14.44
2018-04-26T17:27:35.605Z,14.40
2018-04-26T17:29:28.600Z,14.53
2018-04-26T17:30:28.654Z,14.33
2018-04-26T17:32:21.642Z,14.30
2018-04-26T17:33:21.704Z,14.30
2018-04-26T17:35:14.702Z,14.20
2018-04-26T17:36:14.757Z,14.10
2018-04-26T17:38:07.748Z,14.17
2018-04-26T17:39:07.803Z,14.08
2018-04-26T17:41:00.804Z,13.95
2018-04-26T17:42:00.865Z,13.96
2018-04-26T17:43:53.860Z,13.99
2018-04-26T17:44:53.914Z,14.00
2018-04-26T17:46:46.902Z,13.90
2018-04-26T17:47:46.963Z,13.96
2018-04-26T17:49:39.956Z,13.95
2018-04-26T17:50:40.011Z,13.86
2018-04-26T17:52:32.995Z,13.85
2018-04-26T17:53:33.057Z,13.85
2018-04-26T17:55:26.060Z,13.77
2018-04-26T17:56:26.105Z,13.63
2018-04-26T17:58:19.185Z,13.70
2018-04-26T17:59:19.163Z,13.75
2018-04-26T18:01:12.145Z,13.70
2018-04-26T18:02:12.205Z,13.62
2018-04-26T18:04:05.250Z,13.65
2018-04-26T18:05:05.251Z,13.59
2018-04-26T18:06:58.236Z,13.53
2018-04-26T18:07:58.299Z,13.57
2018-04-26T18:09:51.300Z,13.54
2018-04-26T18:10:51.351Z,13.54
2018-04-26T18:12:44.342Z,13.50
2018-04-26T18:13:44.406Z,13.50
2018-04-26T18:15:37.429Z,13.46
2018-04-26T18:16:37.482Z,13.42
2018-04-26T18:18:30.475Z,13.44
2018-04-26T18:19:30.531Z,13.39
2018-04-26T18:21:23.539Z,13.39
2018-04-26T18:22:23.600Z,13.28
2018-04-26T18:24:16.581Z,13.28
2018-04-26T18:25:16.672Z,13.28
2018-04-26T18:27:09.627Z,13.31
2018-04-26T18:28:09.700Z,13.22
2018-04-26T18:30:02.688Z,13.19
2018-04-26T18:31:02.741Z,13.25
2018-04-26T18:32:55.725Z,13.20
2018-04-26T18:33:55.780Z,13.25
2018-04-26T18:35:48.894Z,13.15
2018-04-26T18:36:48.834Z,13.12
2018-04-26T18:38:41.831Z,13.12